createdAt,value
2022-10-19T00:00:29.447Z,77.28
2022-10-19T00:01:36.618Z,77.51
2022-10-19T00:02:38.598Z,77.37
2022-10-19T00:03:43.322Z,77.42
2022-10-19T00:04:45.087Z,77.98
2022-10-19T00:05:49.472Z,78.15
2022-10-19T00:06:51.221Z,78.70
2022-10-19T00:07:55.758Z,79.60
2022-10-19T00:08:58.422Z,80.07
2022-10-19T00:10:02.799Z,80.68
2022-10-19T00:11:04.550Z,81.40
2022-10-19T00:12:08.910Z,82.06
2022-10-19T00:13:10.771Z,82.46
2022-10-19T00:14:16.820Z,82.90
2022-10-19T00:15:18.548Z,83.32
2022-10-19T00:16:23.192Z,83.65
2022-10-19T00:17:24.947Z,84.06
2022-10-19T00:18:29.334Z,84.04
2022-10-19T00:19:34.079Z,84.47
2022-10-19T00:20:36.335Z,84.44
2022-10-19T00:21:40.937Z,84.86
2022-10-19T00:22:42.761Z,85.00
2022-10-19T00:23:47.151Z,85.33
2022-10-19T00:24:48.906Z,85.55
2022-10-19T00:25:59.778Z,85.59
2022-10-19T00:27:01.651Z,85.73
2022-10-19T00:28:06.057Z,85.95
2022-10-19T00:29:07.923Z,85.87
2022-10-19T00:30:12.360Z,85.84
2022-10-19T00:31:15.877Z,86.00
2022-10-19T00:32:20.513Z,85.77
2022-10-19T00:33:22.924Z,85.73
2022-10-19T00:34:27.258Z,86.01
2022-10-19T00:35:29.022Z,85.96
2022-10-19T00:36:35.282Z,85.79
2022-10-19T00:37:37.042Z,85.85
2022-10-19T00:38:41.957Z,86.04
2022-10-19T00:39:43.881Z,86.31
2022-10-19T00:40:48.309Z,86.43
2022-10-19T00:41:52.632Z,86.43
2022-10-19T00:42:55.365Z,86.05
2022-10-19T00:43:59.771Z,86.34
2022-10-19T00:45:03.158Z,86.92
2022-10-19T00:46:08.218Z,86.75
2022-10-19T00:47:10.083Z,86.65
2022-10-19T00:48:15.510Z,86.27
2022-10-19T00:49:20.958Z,86.14
2022-10-19T00:50:26.640Z,86.16
2022-10-19T00:51:28.563Z,85.88
2022-10-19T00:52:33.333Z,86.02
2022-10-19T00:53:35.356Z,85.86
2022-10-19T00:54:40.881Z,85.58
2022-10-19T00:55:42.665Z,85.35
2022-10-19T00:56:47.447Z,85.20
2022-10-19T00:59:16.779Z,84.04
2022-10-19T01:00:18.597Z,83.71
2022-10-19T01:01:23.365Z,82.91
2022-10-19T01:02:25.215Z,82.77
2022-10-19T01:03:29.550Z,82.45
2022-10-19T01:04:31.431Z,82.14
2022-10-19T01:05:36.189Z,81.64
2022-10-19T01:06:38.005Z,81.22
2022-10-19T01:07:42.379Z,81.04
2022-10-19T01:08:44.197Z,80.71
2022-10-19T01:09:48.757Z,80.61
2022-10-19T01:11:02.858Z,80.18
2022-10-19T01:12:26.195Z,79.96
2022-10-19T01:13:37.110Z,79.31
2022-10-19T01:14:38.797Z,79.29
2022-10-19T01:15:49.830Z,78.91
2022-10-19T01:17:00.258Z,78.93
2022-10-19T01:18:09.938Z,78.63
2022-10-19T01:19:17.346Z,78.39
2022-10-19T01:20:40.547Z,78.14
2022-10-19T01:21:46.703Z,78.07
2022-10-19T01:22:55.470Z,77.61
2022-10-19T01:24:18.508Z,77.42
2022-10-19T01:25:24.946Z,76.62
2022-10-19T01:26:38.301Z,76.26
2022-10-19T01:27:44.705Z,76.51
2022-10-19T01:28:54.342Z,76.49
2022-10-19T01:29:58.791Z,76.48
2022-10-19T01:31:03.120Z,76.75
2022-10-19T01:32:04.811Z,76.68
2022-10-19T01:33:16.255Z,76.59
2022-10-19T01:34:33.056Z,76.39
2022-10-19T01:35:54.373Z,76.39
2022-10-19T01:36:56.099Z,76.27
2022-10-19T01:38:22.469Z,76.89
2022-10-19T01:39:24.220Z,77.11
2022-10-19T01:40:43.530Z,77.61
2022-10-19T01:41:53.376Z,78.12
2022-10-19T01:43:01.181Z,78.59
2022-10-19T01:44:12.487Z,78.91
2022-10-19T01:45:15.711Z,78.84
2022-10-19T01:46:24.866Z,78.83
2022-10-19T01:47:27.199Z,78.88
2022-10-19T01:48:32.094Z,78.57
2022-10-19T01:49:36.975Z,78.49
2022-10-19T01:50:43.516Z,78.64
2022-10-19T01:51:49.093Z,78.52
2022-10-19T01:52:51.196Z,78.42
2022-10-19T01:53:56.317Z,78.42
2022-10-19T01:54:59.858Z,77.98
2022-10-19T01:56:04.191Z,78.14
2022-10-19T01:57:06.563Z,78.03
2022-10-19T01:58:11.454Z,77.91
2022-10-19T01:59:13.218Z,78.22
2022-10-19T02:00:17.789Z,78.33
2022-10-19T02:01:19.949Z,78.50
2022-10-19T02:02:27.074Z,78.72
2022-10-19T02:03:28.830Z,78.65
2022-10-19T02:04:33.182Z,78.74
2022-10-19T02:05:34.942Z,79.17
2022-10-19T02:06:39.269Z,79.37
2022-10-19T02:07:41.595Z,79.33
2022-10-19T02:08:50.267Z,79.53
2022-10-19T02:09:52.055Z,79.03
2022-10-19T02:10:56.381Z,78.92
2022-10-19T02:11:59.856Z,79.00
2022-10-19T02:13:04.209Z,78.75
2022-10-19T02:14:07.195Z,78.74
2022-10-19T02:15:15.447Z,78.78
2022-10-19T02:16:22.274Z,78.76
2022-10-19T02:17:30.497Z,78.88
2022-10-19T02:18:36.235Z,78.84
2022-10-19T02:19:40.558Z,79.06
2022-10-19T02:20:42.394Z,78.65
2022-10-19T02:21:46.766Z,78.58
2022-10-19T02:22:48.529Z,78.70
2022-10-19T02:23:54.241Z,78.59
2022-10-19T02:24:56.312Z,78.38
2022-10-19T02:26:00.661Z,78.30
2022-10-19T02:27:04.952Z,78.26
2022-10-19T02:28:09.507Z,78.19
2022-10-19T02:29:11.260Z,77.96
2022-10-19T02:30:16.260Z,77.83
2022-10-19T02:31:18.116Z,77.68
2022-10-19T02:32:22.480Z,77.76
2022-10-19T02:33:24.255Z,77.97
2022-10-19T02:34:28.695Z,77.85
2022-10-19T02:35:30.483Z,78.18
2022-10-19T02:36:34.887Z,78.41
2022-10-19T02:38:40.943Z,78.54
2022-10-19T02:39:43.313Z,78.65
2022-10-19T02:40:48.469Z,78.55
2022-10-19T02:41:52.379Z,79.17
2022-10-19T02:43:01.500Z,79.19
2022-10-19T02:44:08.281Z,79.70
2022-10-19T02:45:21.467Z,79.83
2022-10-19T02:46:23.179Z,80.06
2022-10-19T02:47:38.647Z,80.67
2022-10-19T02:48:40.383Z,81.34
2022-10-19T02:49:44.766Z,81.86
2022-10-19T02:50:47.851Z,82.09
2022-10-19T02:52:06.089Z,81.97
2022-10-19T02:53:07.822Z,82.10
2022-10-19T02:54:12.205Z,82.30
2022-10-19T02:55:13.994Z,82.52
2022-10-19T02:56:18.330Z,82.40
2022-10-19T02:57:23.589Z,82.64
2022-10-19T02:58:27.925Z,82.56
2022-10-19T02:59:30.193Z,82.55
2022-10-19T03:00:34.695Z,82.27
2022-10-19T03:01:36.490Z,82.01
2022-10-19T03:02:40.838Z,81.94
2022-10-19T03:03:42.594Z,81.98
2022-10-19T03:05:49.763Z,81.84
2022-10-19T03:06:54.086Z,82.08
2022-10-19T03:07:55.826Z,81.86
2022-10-19T03:09:00.259Z,81.77
2022-10-19T03:10:02.024Z,81.73
2022-10-19T03:11:06.433Z,81.60
2022-10-19T03:12:08.289Z,81.62
2022-10-19T03:13:12.651Z,81.30
2022-10-19T03:14:14.463Z,81.16
2022-10-19T03:15:19.363Z,81.25
2022-10-19T03:16:21.110Z,81.32
2022-10-19T03:17:25.439Z,80.86
2022-10-19T03:18:27.195Z,81.03
2022-10-19T03:19:31.692Z,80.69
2022-10-19T03:20:33.524Z,80.50
2022-10-19T03:21:37.942Z,80.49
2022-10-19T03:22:39.805Z,80.49
2022-10-19T03:23:44.424Z,80.28
2022-10-19T03:24:46.208Z,80.05
2022-10-19T03:25:50.672Z,79.78
2022-10-19T03:26:52.547Z,79.71
2022-10-19T03:27:56.890Z,79.50
2022-10-19T03:28:58.686Z,79.32
2022-10-19T03:30:03.062Z,78.76
2022-10-19T03:31:04.864Z,78.69
2022-10-19T03:32:09.290Z,77.71
2022-10-19T03:33:11.020Z,77.36
2022-10-19T03:34:15.359Z,76.68
2022-10-19T03:35:17.252Z,76.44
2022-10-19T03:36:28.655Z,76.24
2022-10-19T03:37:30.397Z,76.08
2022-10-19T03:38:34.723Z,76.05
2022-10-19T03:39:36.472Z,76.05
2022-10-19T03:40:40.814Z,76.28
2022-10-19T03:41:42.859Z,76.35
2022-10-19T03:42:47.184Z,76.44
2022-10-19T03:43:49.029Z,76.35
2022-10-19T03:44:54.019Z,76.28
2022-10-19T03:45:56.027Z,76.46
2022-10-19T03:47:00.376Z,77.08
2022-10-19T03:48:02.110Z,77.10
2022-10-19T03:49:07.018Z,76.99
2022-10-19T03:50:11.344Z,76.81
2022-10-19T03:51:17.283Z,76.72
2022-10-19T03:52:19.129Z,76.52
2022-10-19T03:53:23.538Z,76.07
2022-10-19T03:54:27.412Z,75.90
2022-10-19T03:55:32.880Z,76.07
2022-10-19T03:56:35.297Z,76.36
2022-10-19T03:57:40.047Z,76.33
2022-10-19T03:58:42.150Z,76.39
2022-10-19T03:59:46.560Z,76.28
2022-10-19T04:00:48.369Z,76.68
2022-10-19T04:01:52.702Z,76.58
2022-10-19T04:02:54.443Z,76.90
2022-10-19T04:03:59.861Z,76.51
2022-10-19T04:05:04.210Z,76.74
2022-10-19T04:06:06.813Z,76.86
2022-10-19T04:07:11.160Z,77.07
2022-10-19T04:08:12.947Z,77.39
2022-10-19T04:09:19.702Z,77.17
2022-10-19T04:10:21.496Z,77.58
2022-10-19T04:11:27.102Z,77.51
2022-10-19T04:12:28.934Z,77.43
2022-10-19T04:13:33.741Z,77.54
2022-10-19T04:14:52.639Z,77.67
2022-10-19T04:15:59.879Z,77.65
2022-10-19T04:17:02.096Z,77.85
2022-10-19T04:18:06.499Z,77.95
2022-10-19T04:19:08.671Z,77.81
2022-10-19T04:20:13.185Z,77.84
2022-10-19T04:23:32.043Z,78.88
2022-10-19T04:24:33.853Z,79.10
2022-10-19T04:25:38.236Z,79.09
2022-10-19T04:26:41.667Z,79.28
2022-10-19T04:27:46.038Z,79.06
2022-10-19T04:28:48.013Z,79.03
2022-10-19T04:29:52.525Z,78.92
2022-10-19T04:30:54.297Z,79.23
2022-10-19T04:31:58.636Z,79.41
2022-10-19T04:33:00.378Z,79.42
2022-10-19T04:34:04.716Z,79.69
2022-10-19T04:35:06.974Z,79.88
2022-10-19T04:36:12.202Z,80.15
2022-10-19T04:37:13.983Z,79.80
2022-10-19T04:38:18.310Z,79.97
2022-10-19T04:39:20.107Z,79.82
2022-10-19T04:40:24.466Z,80.20
2022-10-19T04:41:26.225Z,79.97
2022-10-19T04:42:30.646Z,80.14
2022-10-19T04:43:32.441Z,80.15
2022-10-19T04:44:36.814Z,80.33
2022-10-19T04:45:38.622Z,80.21
2022-10-19T04:46:43.044Z,80.53
2022-10-19T04:47:44.790Z,80.41
2022-10-19T04:48:49.666Z,80.29
2022-10-19T04:49:51.421Z,80.39
2022-10-19T04:50:57.262Z,80.36
2022-10-19T04:52:01.675Z,80.51
2022-10-19T04:53:03.599Z,80.85
2022-10-19T04:54:07.936Z,80.92
2022-10-19T04:55:09.752Z,81.04
2022-10-19T04:56:15.362Z,81.11
2022-10-19T04:57:17.144Z,81.22
2022-10-19T04:58:21.637Z,80.90
2022-10-19T04:59:23.435Z,81.08
2022-10-19T05:00:27.753Z,81.10
2022-10-19T05:01:30.103Z,81.68
2022-10-19T05:02:34.501Z,81.06
2022-10-19T05:03:36.259Z,81.14
2022-10-19T05:04:43.079Z,81.08
2022-10-19T05:05:47.366Z,81.10
2022-10-19T05:06:51.687Z,81.43
2022-10-19T05:07:53.548Z,81.45
2022-10-19T05:08:58.912Z,81.61
2022-10-19T05:10:00.682Z,81.91
2022-10-19T05:11:05.622Z,81.56
2022-10-19T05:12:10.023Z,81.54
2022-10-19T05:13:11.806Z,81.56
2022-10-19T05:14:16.176Z,81.48
2022-10-19T05:15:18.139Z,81.96
2022-10-19T05:16:23.658Z,81.68
2022-10-19T05:17:25.407Z,82.38
2022-10-19T05:18:29.974Z,82.58
2022-10-19T05:19:31.752Z,82.78
2022-10-19T05:20:36.081Z,83.22
2022-10-19T05:21:40.486Z,82.99
2022-10-19T05:22:42.299Z,83.42
2022-10-19T05:23:46.777Z,83.51
2022-10-19T05:24:48.526Z,83.66
2022-10-19T05:25:52.955Z,83.64
2022-10-19T05:26:57.332Z,83.96
2022-10-19T05:27:59.071Z,83.47
2022-10-19T05:29:04.806Z,83.21
2022-10-19T05:30:08.414Z,83.25
2022-10-19T05:31:13.694Z,82.97
2022-10-19T05:32:15.471Z,82.88
2022-10-19T05:33:19.962Z,83.13
2022-10-19T05:34:24.371Z,82.68
2022-10-19T05:35:26.791Z,82.61
2022-10-19T05:36:34.621Z,82.19
2022-10-19T05:37:36.943Z,82.33
2022-10-19T05:38:41.709Z,82.30
2022-10-19T05:39:46.308Z,82.39
2022-10-19T05:40:53.614Z,81.95
2022-10-19T05:41:58.207Z,81.68
2022-10-19T05:42:59.999Z,81.50
2022-10-19T05:44:05.149Z,81.75
2022-10-19T05:45:07.387Z,82.11
2022-10-19T05:46:12.821Z,81.83
2022-10-19T05:47:14.667Z,81.27
2022-10-19T05:48:19.086Z,81.68
2022-10-19T05:49:24.224Z,82.03
2022-10-19T05:50:31.105Z,81.70
2022-10-19T05:51:35.643Z,81.77
2022-10-19T05:52:37.460Z,81.88
2022-10-19T05:53:42.479Z,82.10
2022-10-19T05:54:44.514Z,82.42
2022-10-19T05:55:48.888Z,81.90
2022-10-19T05:56:53.267Z,81.90
2022-10-19T05:57:55.027Z,81.29
2022-10-19T05:59:00.896Z,81.57
2022-10-19T06:00:03.999Z,81.81
2022-10-19T06:01:18.944Z,81.68
2022-10-19T06:02:20.810Z,82.35
2022-10-19T06:03:25.168Z,82.56
2022-10-19T06:04:29.585Z,82.69
2022-10-19T06:05:31.402Z,82.07
2022-10-19T06:06:35.978Z,82.96
2022-10-19T06:07:37.766Z,82.06
2022-10-19T06:08:42.242Z,82.62
2022-10-19T06:09:45.811Z,82.69
2022-10-19T06:10:50.314Z,83.28
2022-10-19T06:11:54.705Z,83.71
2022-10-19T06:12:56.423Z,83.96
2022-10-19T06:14:02.531Z,83.80
2022-10-19T06:15:04.447Z,85.39
2022-10-19T06:16:09.411Z,84.88
2022-10-19T06:17:11.303Z,84.05
2022-10-19T06:18:15.830Z,84.36
2022-10-19T06:19:20.211Z,83.85
2022-10-19T06:20:21.984Z,84.07
2022-10-19T06:21:27.557Z,84.81
2022-10-19T06:22:29.853Z,85.34
2022-10-19T06:23:35.024Z,84.43
2022-10-19T06:24:39.402Z,84.26
2022-10-19T06:25:41.349Z,84.79
2022-10-19T06:26:45.691Z,84.87
2022-10-19T06:27:47.660Z,84.60
2022-10-19T06:28:52.318Z,84.23
2022-10-19T06:29:54.159Z,84.38
2022-10-19T06:31:00.077Z,83.64
2022-10-19T06:32:04.449Z,83.88
2022-10-19T06:33:06.441Z,84.31
2022-10-19T06:34:10.897Z,85.73
2022-10-19T06:35:12.674Z,86.70
2022-10-19T06:36:21.448Z,84.85
2022-10-19T06:37:23.287Z,84.80
2022-10-19T06:38:27.613Z,85.52
2022-10-19T06:39:29.403Z,86.12
2022-10-19T06:40:33.817Z,86.77
2022-10-19T06:41:35.687Z,85.52
2022-10-19T06:42:55.586Z,87.16
2022-10-19T06:43:57.388Z,87.32
2022-10-19T06:45:01.807Z,87.28
2022-10-19T06:46:04.321Z,88.31
2022-10-19T06:47:08.630Z,89.37
2022-10-19T06:48:13.006Z,90.08
2022-10-19T06:49:17.586Z,90.78
2022-10-19T06:50:20.495Z,91.05
2022-10-19T06:51:25.502Z,92.61
2022-10-19T06:52:27.337Z,94.89
2022-10-19T06:53:34.434Z,95.05
2022-10-19T06:54:38.833Z,95.94
2022-10-19T06:55:40.647Z,96.27
2022-10-19T06:56:45.066Z,96.84
2022-10-19T06:57:46.827Z,96.44
2022-10-19T06:58:51.153Z,97.07
2022-10-19T06:59:53.784Z,97.35
2022-10-19T07:00:59.277Z,99.10
2022-10-19T07:02:03.653Z,99.49
2022-10-19T07:03:05.455Z,99.77
2022-10-19T07:04:09.782Z,99.12
2022-10-19T07:05:11.539Z,98.94
2022-10-19T07:06:15.936Z,100.00
2022-10-19T07:07:18.212Z,100.00
2022-10-19T07:08:22.743Z,100.00
2022-10-19T07:09:27.086Z,100.00
2022-10-19T07:10:29.699Z,100.00
2022-10-19T07:11:34.118Z,100.00
2022-10-19T07:12:35.853Z,100.00
2022-10-19T07:13:40.238Z,100.00
2022-10-19T07:14:41.982Z,100.00
2022-10-19T07:15:47.105Z,100.00
2022-10-19T07:16:52.505Z,100.00
2022-10-19T07:17:54.293Z,100.00
2022-10-19T07:18:59.090Z,100.00
2022-10-19T07:20:00.839Z,100.00
2022-10-19T07:21:05.953Z,100.00
2022-10-19T07:22:07.796Z,100.00
2022-10-19T07:23:12.159Z,100.00
2022-10-19T07:24:16.515Z,100.00
2022-10-19T07:25:18.318Z,100.00
2022-10-19T07:26:27.948Z,100.00
2022-10-19T07:27:31.874Z,100.00
2022-10-19T07:28:39.690Z,100.00
2022-10-19T07:29:41.547Z,100.00
2022-10-19T07:30:45.885Z,100.00
2022-10-19T07:31:47.644Z,100.00
2022-10-19T07:32:52.093Z,100.00
2022-10-19T07:33:59.881Z,100.00
2022-10-19T07:35:04.235Z,100.00
2022-10-19T07:36:08.400Z,100.00
2022-10-19T07:37:12.790Z,100.00
2022-10-19T07:38:14.607Z,100.00
2022-10-19T07:39:19.714Z,100.00
2022-10-19T07:40:21.536Z,100.00
2022-10-19T07:41:26.553Z,100.00
2022-10-19T07:42:30.498Z,100.00
2022-10-19T07:43:34.955Z,100.00
2022-10-19T07:44:36.843Z,100.00
2022-10-19T07:45:41.178Z,100.00
2022-10-19T07:46:45.562Z,100.00
2022-10-19T07:47:47.316Z,100.00
2022-10-19T07:48:51.759Z,100.00
2022-10-19T07:49:53.524Z,100.00
2022-10-19T07:50:57.869Z,100.00
2022-10-19T07:52:02.326Z,100.00
2022-10-19T07:53:05.368Z,100.00
2022-10-19T07:54:09.733Z,100.00
2022-10-19T07:55:11.527Z,100.00
2022-10-19T07:56:20.650Z,100.00
2022-10-19T07:57:25.113Z,100.00
2022-10-19T07:58:26.924Z,100.00
2022-10-19T07:59:31.386Z,100.00
2022-10-19T08:00:36.016Z,100.00
2022-10-19T08:01:44.828Z,100.00
2022-10-19T08:02:57.770Z,100.00
2022-10-19T08:04:55.477Z,100.00
2022-10-19T08:05:35.973Z,100.00
2022-10-19T08:06:40.353Z,100.00
2022-10-19T08:07:46.624Z,100.00
2022-10-19T08:08:48.884Z,100.00
2022-10-19T08:09:54.313Z,100.00
2022-10-19T08:10:59.123Z,100.00
2022-10-19T08:12:03.500Z,100.00
2022-10-19T08:13:07.860Z,100.00
2022-10-19T08:14:12.257Z,100.00
2022-10-19T08:15:16.665Z,100.00
2022-10-19T08:16:28.694Z,100.00
2022-10-19T08:17:33.189Z,100.00
2022-10-19T08:18:36.166Z,100.00
2022-10-19T08:19:43.511Z,100.00
2022-10-19T08:20:48.122Z,100.00
2022-10-19T08:21:52.694Z,100.00
2022-10-19T08:22:59.027Z,100.00
2022-10-19T08:24:03.642Z,100.00
2022-10-19T08:25:08.821Z,100.00
2022-10-19T08:26:10.583Z,100.00
2022-10-19T08:27:14.938Z,100.00
2022-10-19T08:28:16.758Z,100.00
2022-10-19T08:29:21.981Z,100.00
2022-10-19T08:30:23.735Z,100.00
2022-10-19T08:31:28.165Z,100.00
2022-10-19T08:32:32.840Z,100.00
2022-10-19T08:33:37.467Z,100.00
2022-10-19T08:34:41.995Z,100.00
2022-10-19T08:35:43.750Z,100.00
2022-10-19T08:36:48.409Z,100.00
2022-10-19T08:37:53.364Z,100.00
2022-10-19T08:38:58.090Z,100.00
2022-10-19T08:39:59.927Z,100.00
2022-10-19T08:41:14.471Z,100.00
2022-10-19T08:42:31.893Z,100.00
2022-10-19T08:43:34.992Z,100.00
2022-10-19T08:44:58.473Z,100.00
2022-10-19T08:46:08.910Z,100.00
2022-10-19T08:47:18.656Z,100.00
2022-10-19T08:48:33.602Z,100.00
2022-10-19T08:49:38.180Z,100.00
2022-10-19T08:50:43.715Z,100.00
2022-10-19T08:51:48.054Z,100.00
2022-10-19T08:52:55.226Z,100.00
2022-10-19T08:54:00.487Z,100.00
2022-10-19T08:55:15.124Z,100.00
2022-10-19T08:56:45.879Z,100.00
2022-10-19T08:58:08.198Z,100.00
2022-10-19T08:59:17.315Z,100.00
2022-10-19T09:00:43.438Z,100.00
2022-10-19T09:01:52.504Z,100.00
2022-10-19T09:02:56.878Z,100.00
2022-10-19T09:04:13.308Z,100.00
2022-10-19T09:05:23.604Z,100.00
2022-10-19T09:06:32.373Z,100.00
2022-10-19T09:07:36.975Z,100.00
2022-10-19T09:08:41.475Z,100.00
2022-10-19T09:09:48.025Z,100.00
2022-10-19T09:10:51.067Z,100.00
2022-10-19T09:11:55.961Z,100.00
2022-10-19T09:13:01.526Z,100.00
2022-10-19T09:14:08.346Z,100.00
2022-10-19T09:15:13.871Z,100.00
2022-10-19T09:16:19.181Z,100.00
2022-10-19T09:17:21.026Z,100.00
2022-10-19T09:18:28.438Z,100.00
2022-10-19T09:19:32.216Z,100.00
2022-10-19T09:20:38.218Z,100.00
2022-10-19T09:21:47.261Z,100.00
2022-10-19T09:23:06.694Z,100.00
2022-10-19T09:24:30.409Z,100.00
2022-10-19T09:25:34.796Z,100.00
2022-10-19T09:26:40.018Z,100.00
2022-10-19T09:27:41.880Z,100.00
2022-10-19T09:28:48.589Z,100.00
2022-10-19T09:29:54.303Z,100.00
2022-10-19T09:30:56.094Z,100.00
2022-10-19T09:32:01.519Z,100.00
2022-10-19T09:33:03.437Z,100.00
2022-10-19T09:34:13.960Z,100.00
2022-10-19T09:35:23.466Z,100.00
2022-10-19T09:36:33.251Z,100.00
2022-10-19T09:37:53.206Z,100.00
2022-10-19T09:38:57.545Z,100.00
2022-10-19T09:40:02.007Z,100.00
2022-10-19T09:41:17.462Z,100.00
2022-10-19T09:42:30.299Z,100.00
2022-10-19T09:43:32.118Z,100.00
2022-10-19T09:44:36.595Z,100.00
2022-10-19T09:45:43.417Z,100.00
2022-10-19T09:46:52.106Z,100.00
2022-10-19T09:48:02.206Z,100.00
2022-10-19T09:49:11.363Z,100.00
2022-10-19T09:50:17.669Z,100.00
2022-10-19T09:51:22.477Z,100.00
2022-10-19T09:52:32.547Z,100.00
2022-10-19T09:53:37.273Z,100.00
2022-10-19T09:54:39.067Z,100.00
2022-10-19T09:55:46.589Z,100.00
2022-10-19T09:56:52.763Z,100.00
2022-10-19T09:58:06.238Z,100.00
2022-10-19T09:59:11.677Z,100.00
2022-10-19T10:00:23.340Z,100.00
2022-10-19T10:01:41.601Z,100.00
2022-10-19T10:02:49.054Z,100.00
2022-10-19T10:03:55.877Z,100.00
2022-10-19T10:05:03.849Z,100.00
2022-10-19T10:06:12.477Z,100.00
2022-10-19T10:07:15.555Z,100.00
2022-10-19T10:08:21.245Z,100.00
2022-10-19T10:09:24.017Z,100.00
2022-10-19T10:10:32.540Z,100.00
2022-10-19T10:11:38.115Z,100.00
2022-10-19T10:12:40.118Z,100.00
2022-10-19T10:13:45.771Z,100.00
2022-10-19T10:14:50.319Z,100.00
2022-10-19T10:15:58.433Z,100.00
2022-10-19T10:17:05.854Z,100.00
2022-10-19T10:18:12.343Z,100.00
2022-10-19T10:19:16.985Z,100.00
2022-10-19T10:20:21.687Z,98.85
2022-10-19T10:21:32.215Z,95.33
2022-10-19T10:22:35.883Z,92.80
2022-10-19T10:23:40.523Z,90.87
2022-10-19T10:24:42.909Z,89.29
2022-10-19T10:25:47.300Z,88.07
2022-10-19T10:26:53.692Z,87.98
2022-10-19T10:27:59.651Z,87.61
2022-10-19T10:29:04.017Z,87.63
2022-10-19T10:30:09.959Z,88.11
2022-10-19T10:31:14.298Z,88.88
2022-10-19T10:32:16.862Z,88.98
2022-10-19T10:33:40.735Z,88.49
2022-10-19T10:35:06.535Z,88.60
2022-10-19T10:36:11.220Z,88.50
2022-10-19T10:37:16.689Z,88.69
2022-10-19T10:38:21.355Z,89.62
2022-10-19T10:39:24.830Z,89.41
2022-10-19T10:40:31.152Z,89.79
2022-10-19T10:41:41.837Z,89.89
2022-10-19T10:42:44.370Z,90.04
2022-10-19T10:45:20.697Z,89.83
2022-10-19T10:46:23.207Z,89.55
2022-10-19T10:47:27.605Z,88.99
2022-10-19T10:48:33.610Z,88.27
2022-10-19T10:49:36.331Z,87.51
2022-10-19T10:50:40.775Z,86.20
2022-10-19T10:51:50.717Z,85.51
2022-10-19T10:52:56.888Z,84.26
2022-10-19T10:54:20.152Z,83.42
2022-10-19T10:55:21.891Z,83.09
2022-10-19T10:56:26.229Z,82.60
2022-10-19T10:57:33.379Z,82.37
2022-10-19T10:58:37.858Z,81.40
2022-10-19T11:00:03.762Z,81.33
2022-10-19T11:01:07.674Z,80.96
2022-10-19T11:03:51.182Z,80.56
2022-10-19T11:04:57.370Z,80.75
2022-10-19T11:05:59.765Z,80.85
2022-10-19T11:07:04.942Z,81.33
2022-10-19T11:08:15.114Z,81.38
2022-10-19T11:09:39.001Z,81.84
2022-10-19T11:10:44.377Z,81.94
2022-10-19T11:11:48.930Z,81.96
2022-10-19T11:13:01.895Z,82.38
2022-10-19T11:14:24.873Z,82.03
2022-10-19T11:15:31.070Z,81.76
2022-10-19T11:16:34.179Z,81.26
2022-10-19T11:17:39.584Z,80.95
2022-10-19T11:18:47.479Z,80.82
2022-10-19T11:19:53.730Z,81.24
2022-10-19T11:21:00.362Z,80.32
2022-10-19T11:22:25.036Z,79.81
2022-10-19T11:23:43.474Z,79.96
2022-10-19T11:24:47.920Z,79.31
2022-10-19T11:25:57.188Z,79.71
2022-10-19T11:27:30.949Z,82.64
2022-10-19T11:28:35.731Z,82.83
2022-10-19T11:29:44.265Z,87.17
2022-10-19T11:30:55.883Z,88.24
2022-10-19T11:32:00.505Z,91.10
2022-10-19T11:33:11.443Z,91.23
2022-10-19T11:34:34.450Z,90.32
2022-10-19T11:35:55.555Z,92.74
2022-10-19T11:37:03.054Z,91.61
2022-10-19T11:38:20.237Z,92.69
2022-10-19T11:39:45.094Z,93.70
2022-10-19T11:42:20.063Z,96.38
2022-10-19T11:43:27.114Z,96.64
2022-10-19T11:44:43.607Z,95.92
2022-10-19T11:45:45.383Z,98.21
2022-10-19T11:47:08.620Z,98.91
2022-10-19T11:48:10.422Z,99.68
2022-10-19T11:49:17.813Z,100.00
2022-10-19T11:50:44.095Z,100.00
2022-10-19T11:51:57.464Z,100.00
2022-10-19T11:53:05.341Z,100.00
2022-10-19T11:54:15.047Z,100.00
2022-10-19T11:55:25.483Z,100.00
2022-10-19T11:56:39.156Z,100.00
2022-10-19T11:57:52.536Z,100.00
2022-10-19T11:59:09.192Z,100.00
2022-10-19T12:00:20.919Z,100.00
2022-10-19T12:01:56.502Z,100.00
2022-10-19T12:03:05.637Z,100.00
2022-10-19T12:04:22.960Z,100.00
2022-10-19T12:05:27.918Z,100.00
2022-10-19T12:06:48.391Z,100.00
2022-10-19T12:07:55.463Z,100.00
2022-10-19T12:09:06.208Z,100.00
2022-10-19T12:10:14.843Z,100.00
2022-10-19T12:11:16.935Z,100.00
2022-10-19T12:12:24.755Z,100.00
2022-10-19T12:13:31.644Z,100.00
2022-10-19T12:14:36.161Z,100.00
2022-10-19T12:15:45.414Z,100.00
2022-10-19T12:16:57.624Z,100.00
2022-10-19T12:18:03.885Z,100.00
2022-10-19T12:19:06.069Z,100.00
2022-10-19T12:20:22.057Z,100.00
2022-10-19T12:21:44.940Z,100.00
2022-10-19T12:22:46.803Z,100.00
2022-10-19T12:23:51.166Z,100.00
2022-10-19T12:24:55.440Z,100.00
2022-10-19T12:26:00.301Z,100.00
2022-10-19T12:27:02.245Z,100.00
2022-10-19T12:28:06.662Z,100.00
2022-10-19T12:29:30.566Z,100.00
2022-10-19T12:30:34.883Z,100.00
2022-10-19T12:31:36.741Z,100.00
2022-10-19T12:32:43.343Z,100.00
2022-10-19T12:34:06.549Z,100.00
2022-10-19T12:36:58.382Z,100.00
2022-10-19T12:38:04.287Z,100.00
2022-10-19T12:39:15.066Z,100.00
2022-10-19T12:40:24.698Z,100.00
2022-10-19T12:41:52.280Z,100.00
2022-10-19T12:42:54.450Z,100.00
2022-10-19T12:44:01.621Z,100.00
2022-10-19T12:45:03.391Z,100.00
2022-10-19T12:46:17.070Z,100.00
2022-10-19T12:47:22.490Z,100.00
2022-10-19T12:48:27.385Z,100.00
2022-10-19T12:49:29.190Z,100.00
2022-10-19T12:50:53.866Z,100.00
2022-10-19T12:51:56.055Z,100.00
2022-10-19T12:53:00.389Z,100.00
2022-10-19T12:54:11.458Z,100.00
2022-10-19T12:55:18.497Z,100.00
2022-10-19T12:56:22.850Z,100.00
2022-10-19T12:57:28.403Z,100.00
2022-10-19T12:58:35.302Z,100.00
2022-10-19T12:59:37.120Z,100.00
2022-10-19T13:00:41.733Z,100.00
2022-10-19T13:01:44.428Z,100.00
2022-10-19T13:02:48.863Z,100.00
2022-10-19T13:03:54.433Z,100.00
2022-10-19T13:04:56.167Z,100.00
2022-10-19T13:06:01.021Z,100.00
2022-10-19T13:07:08.126Z,100.00
2022-10-19T13:08:14.559Z,100.00
2022-10-19T13:09:24.764Z,100.00
2022-10-19T13:10:26.933Z,100.00
2022-10-19T13:11:31.506Z,100.00
2022-10-19T13:12:46.465Z,100.00
2022-10-19T13:13:51.598Z,100.00
2022-10-19T13:14:58.809Z,100.00
2022-10-19T13:16:00.669Z,100.00
2022-10-19T13:17:05.447Z,100.00
2022-10-19T13:18:13.805Z,100.00
2022-10-19T13:19:18.374Z,100.00
2022-10-19T13:20:24.973Z,100.00
2022-10-19T13:21:44.824Z,100.00
2022-10-19T13:22:55.320Z,100.00
2022-10-19T13:23:57.124Z,100.00
2022-10-19T13:25:17.540Z,100.00
2022-10-19T13:26:33.127Z,100.00
2022-10-19T13:27:41.378Z,100.00
2022-10-19T13:28:55.009Z,100.00
2022-10-19T13:29:56.850Z,100.00
2022-10-19T13:31:07.122Z,100.00
2022-10-19T13:32:33.576Z,100.00
2022-10-19T13:33:43.577Z,100.00
2022-10-19T13:34:45.885Z,100.00
2022-10-19T13:35:50.254Z,100.00
2022-10-19T13:37:03.868Z,100.00
2022-10-19T13:38:17.954Z,100.00
2022-10-19T13:39:22.316Z,100.00
2022-10-19T13:40:24.899Z,100.00
2022-10-19T13:41:30.069Z,100.00
2022-10-19T13:42:31.984Z,100.00
2022-10-19T13:43:37.610Z,100.00
2022-10-19T13:44:42.267Z,100.00
2022-10-19T13:45:44.814Z,100.00
2022-10-19T13:47:01.200Z,100.00
2022-10-19T13:48:08.678Z,100.00
2022-10-19T13:49:32.488Z,100.00
2022-10-19T13:50:43.242Z,100.00
2022-10-19T13:51:49.575Z,100.00
2022-10-19T13:53:00.353Z,100.00
2022-10-19T13:54:23.386Z,100.00
2022-10-19T13:55:25.183Z,100.00
2022-10-19T13:56:32.724Z,100.00
2022-10-19T13:57:57.029Z,100.00
2022-10-19T13:59:19.349Z,100.00
2022-10-19T14:00:27.164Z,100.00
2022-10-19T14:01:32.058Z,100.00
2022-10-19T14:02:42.685Z,100.00
2022-10-19T14:04:05.886Z,100.00
2022-10-19T14:05:07.640Z,100.00
2022-10-19T14:06:15.319Z,100.00
2022-10-19T14:07:20.871Z,100.00
2022-10-19T14:08:41.519Z,100.00
2022-10-19T14:09:55.148Z,100.00
2022-10-19T14:11:04.337Z,100.00
2022-10-19T14:12:11.499Z,100.00
2022-10-19T14:13:16.894Z,100.00
2022-10-19T14:14:20.083Z,100.00